Time;durP1;ratioP1;P1;durP2;ratioP2;P2;SDS_P1;SDS_P2;PMS_P1;PMS_P2;Temp;Humidity;BMP_temperature;BMP_pressure;BME280_temperature;BME280_humidity;BME280_pressure;Samples;Min_cycle;Max_cycle;Signal;HPM_P1;HPM_P2
2022/04/22 00:00:10;;;;;;;11.90;6.43;;;;;;;;;;4985407;28;20045;-77
2022/04/22 00:02:39;;;;;;;13.68;6.15;;;;;;;;;;4965238;28;20124;-80
2022/04/22 00:05:05;;;;;;;16.83;5.63;;;;;;;;;;4965849;28;20034;-74
2022/04/22 00:07:31;;;;;;;8.45;4.93;;;;;;;;;;4966302;28;20042;-79
2022/04/22 00:09:57;;;;;;;13.95;6.10;;;;;;;;;;4966786;28;20132;-76
2022/04/22 00:12:23;;;;;;;12.95;5.20;;;;;;;;;;4968955;28;20073;-78
2022/04/22 00:14:49;;;;;;;10.40;5.63;;;;;;;;;;4968104;28;20037;-79
2022/04/22 00:17:15;;;;;;;15.70;5.40;;;;;;;;;;4985828;28;20593;-75
2022/04/22 00:19:41;;;;;;;13.45;5.93;;;;;;;;;;4968030;28;20053;-75
2022/04/22 00:22:07;;;;;;;11.60;5.45;;;;;;;;;;4971413;28;20042;-77
2022/04/22 00:24:33;;;;;;;12.98;6.10;;;;;;;;;;4967971;28;20046;-77
2022/04/22 00:26:59;;;;;;;12.52;5.65;;;;;;;;;;4967097;28;20045;-76
2022/04/22 00:29:25;;;;;;;10.13;5.47;;;;;;;;;;4969889;28;20069;-79
2022/04/22 00:31:51;;;;;;;14.07;6.70;;;;;;;;;;4966725;28;20042;-81
2022/04/22 00:34:17;;;;;;;14.38;6.00;;;;;;;;;;4965297;28;20034;-76
2022/04/22 00:36:43;;;;;;;16.42;5.65;;;;;;;;;;4968422;28;20034;-76
2022/04/22 00:39:09;;;;;;;19.27;6.75;;;;;;;;;;4980327;28;20390;-79
2022/04/22 00:41:35;;;;;;;9.93;5.57;;;;;;;;;;4983384;28;20042;-76
2022/04/22 00:44:01;;;;;;;13.90;5.38;;;;;;;;;;4961826;28;20042;-77
2022/04/22 00:46:27;;;;;;;13.80;6.18;;;;;;;;;;4964932;28;20178;-76
2022/04/22 00:48:53;;;;;;;11.73;6.18;;;;;;;;;;4980853;28;20498;-77
2022/04/22 00:51:21;;;;;;;9.57;5.38;;;;;;;;;;4958916;28;20038;-76
2022/04/22 00:53:52;;;;;;;13.57;5.80;;;;;;;;;;4977292;28;20495;-76
2022/04/22 00:56:18;;;;;;;9.37;5.50;;;;;;;;;;4980185;28;20041;-76
2022/04/22 00:58:45;;;;;;;11.98;5.55;;;;;;;;;;4961154;28;20046;-77
2022/04/22 01:01:11;;;;;;;10.70;4.90;;;;;;;;;;4983212;28;20394;-77
2022/04/22 01:03:37;;;;;;;13.07;5.90;;;;;;;;;;4964464;28;20038;-77
2022/04/22 01:11:37;;;;;;;14.15;6.72;;;;;;;;;;4978308;28;20057;-77
2022/04/22 01:14:07;;;;;;;11.85;5.13;;;;;;;;;;4961474;28;20403;-76
2022/04/22 01:16:34;;;;;;;14.50;6.07;;;;;;;;;;4981346;28;20415;-79
2022/04/22 01:19:00;;;;;;;15.07;6.28;;;;;;;;;;4962010;28;20043;-77
2022/04/22 01:21:26;;;;;;;12.27;6.13;;;;;;;;;;4964529;28;20050;-77
2022/04/22 01:23:52;;;;;;;14.32;6.63;;;;;;;;;;4964928;28;20038;-76
2022/04/22 01:26:18;;;;;;;15.30;6.85;;;;;;;;;;4963997;28;20042;-77
2022/04/22 01:28:44;;;;;;;11.10;5.75;;;;;;;;;;4967286;28;20061;-80
2022/04/22 01:31:10;;;;;;;11.32;5.72;;;;;;;;;;4966537;28;20066;-79
2022/04/22 01:33:36;;;;;;;13.07;6.47;;;;;;;;;;4963096;28;20264;-75
2022/04/22 01:36:02;;;;;;;13.70;6.57;;;;;;;;;;4963862;28;20390;-77
2022/04/22 01:38:30;;;;;;;13.63;6.78;;;;;;;;;;4962748;28;20039;-76
2022/04/22 01:40:56;;;;;;;11.48;5.97;;;;;;;;;;4961438;28;20101;-78
2022/04/22 01:43:22;;;;;;;12.35;6.53;;;;;;;;;;4962568;28;20437;-76
2022/04/22 01:45:48;;;;;;;13.65;6.43;;;;;;;;;;4962543;28;20038;-77
2022/04/22 01:48:14;;;;;;;11.15;5.57;;;;;;;;;;4964127;28;20096;-77
2022/04/22 01:50:40;;;;;;;9.27;5.68;;;;;;;;;;4978822;28;20475;-75
2022/04/22 01:53:06;;;;;;;10.20;5.68;;;;;;;;;;4967578;28;20061;-76
2022/04/22 01:55:34;;;;;;;12.95;5.70;;;;;;;;;;4999836;28;20045;-78
2022/04/22 01:58:01;;;;;;;12.55;5.82;;;;;;;;;;4984530;28;20208;-78
2022/04/22 02:00:27;;;;;;;10.23;5.40;;;;;;;;;;4985084;28;20070;-79
2022/04/22 02:02:53;;;;;;;11.38;6.55;;;;;;;;;;4987531;28;20048;-78
2022/04/22 02:05:19;;;;;;;9.90;5.13;;;;;;;;;;5000553;28;20113;-84
2022/04/22 02:07:46;;;;;;;12.15;5.95;;;;;;;;;;4983550;28;20410;-80
2022/04/22 02:10:12;;;;;;;10.68;5.43;;;;;;;;;;4985842;28;20521;-76
2022/04/22 02:12:38;;;;;;;13.68;6.35;;;;;;;;;;4999425;28;20046;-78
2022/04/22 02:15:04;;;;;;;11.13;5.82;;;;;;;;;;4985292;28;20038;-77
2022/04/22 02:17:30;;;;;;;8.52;4.97;;;;;;;;;;4984834;28;20046;-77
2022/04/22 02:19:56;;;;;;;10.00;4.93;;;;;;;;;;4985212;28;20081;-76
2022/04/22 02:22:22;;;;;;;14.75;5.18;;;;;;;;;;4986162;28;20394;-78
2022/04/22 02:24:48;;;;;;;9.57;4.65;;;;;;;;;;4983703;28;20053;-79
2022/04/22 02:29:59;;;;;;;8.82;4.88;;;;;;;;;;4998916;28;20057;-79
2022/04/22 02:32:25;;;;;;;12.15;5.65;;;;;;;;;;4983026;28;20041;-75
2022/04/22 02:34:51;;;;;;;9.23;4.28;;;;;;;;;;4983236;28;20173;-76
2022/04/22 02:37:17;;;;;;;9.35;4.78;;;;;;;;;;4984574;28;20042;-75
2022/04/22 02:39:43;;;;;;;10.23;5.25;;;;;;;;;;4999074;28;20109;-77
2022/04/22 02:47:38;;;;;;;9.85;4.65;;;;;;;;;;4999380;28;20109;-77
2022/04/22 02:50:05;;;;;;;9.38;4.80;;;;;;;;;;4999171;28;20494;-74
2022/04/22 02:52:31;;;;;;;11.38;4.82;;;;;;;;;;5000793;28;20129;-77
2022/04/22 02:54:56;;;;;;;11.57;4.53;;;;;;;;;;5001943;28;20647;-78
2022/04/22 02:57:23;;;;;;;8.70;4.63;;;;;;;;;;5000165;28;20124;-76
2022/04/22 02:59:49;;;;;;;7.30;4.30;;;;;;;;;;4980876;28;20153;-76
2022/04/22 03:02:15;;;;;;;8.50;4.88;;;;;;;;;;4982530;28;20486;-74
2022/04/22 03:04:41;;;;;;;10.02;4.50;;;;;;;;;;4983191;28;20418;-75
2022/04/22 03:07:07;;;;;;;8.02;4.63;;;;;;;;;;4983596;28;20042;-76
2022/04/22 03:09:33;;;;;;;11.48;5.35;;;;;;;;;;4982025;28;20041;-76
2022/04/22 03:11:59;;;;;;;9.50;4.72;;;;;;;;;;4998926;28;20049;-76
2022/04/22 03:14:25;;;;;;;9.35;4.40;;;;;;;;;;4984857;28;20129;-77
2022/04/22 03:16:51;;;;;;;11.93;5.65;;;;;;;;;;4982112;28;20038;-78
2022/04/22 03:19:17;;;;;;;8.23;4.80;;;;;;;;;;4984225;28;20406;-80
2022/04/22 03:21:43;;;;;;;9.40;4.20;;;;;;;;;;4998316;28;20050;-77
2022/04/22 03:24:11;;;;;;;6.68;4.10;;;;;;;;;;4998812;28;20037;-76
2022/04/22 03:26:37;;;;;;;10.40;4.57;;;;;;;;;;4998855;28;20062;-76
2022/04/22 03:29:03;;;;;;;9.60;4.35;;;;;;;;;;4982150;28;20763;-76
2022/04/22 03:31:29;;;;;;;6.20;3.42;;;;;;;;;;4973605;28;20604;-77
2022/04/22 03:33:55;;;;;;;9.57;3.58;;;;;;;;;;4979392;28;20044;-75
2022/04/22 03:36:21;;;;;;;6.35;3.63;;;;;;;;;;4965237;28;20534;-79
2022/04/22 03:38:47;;;;;;;16.63;3.70;;;;;;;;;;4968958;28;20081;-79
2022/04/22 03:41:13;;;;;;;10.45;4.55;;;;;;;;;;4984000;28;20101;-79
2022/04/22 03:43:40;;;;;;;5.07;3.85;;;;;;;;;;4967498;28;20100;-80
2022/04/22 03:46:06;;;;;;;7.50;5.55;;;;;;;;;;4969774;28;20041;-76
2022/04/22 03:48:32;;;;;;;6.88;3.50;;;;;;;;;;4960497;28;20038;-76
2022/04/22 03:50:58;;;;;;;8.27;3.90;;;;;;;;;;4964284;28;20057;-80
2022/04/22 03:53:24;;;;;;;8.32;4.80;;;;;;;;;;4966724;28;20034;-75
2022/04/22 03:55:50;;;;;;;8.30;4.15;;;;;;;;;;4962695;28;20049;-75
2022/04/22 03:58:17;;;;;;;11.02;5.13;;;;;;;;;;4965585;28;20042;-78
2022/04/22 04:00:43;;;;;;;6.88;4.28;;;;;;;;;;4967533;28;20483;-78
2022/04/22 04:03:10;;;;;;;7.35;4.40;;;;;;;;;;4966052;28;20041;-78
2022/04/22 04:05:40;;;;;;;9.18;3.95;;;;;;;;;;4981269;28;20063;-76
2022/04/22 04:08:06;;;;;;;8.13;3.97;;;;;;;;;;4966587;28;20061;-77
2022/04/22 04:16:02;;;;;;;7.68;4.50;;;;;;;;;;4980150;28;20050;-79
2022/04/22 04:18:29;;;;;;;10.68;3.88;;;;;;;;;;4963312;28;20081;-80
2022/04/22 04:23:39;;;;;;;6.25;3.70;;;;;;;;;;4978809;28;20046;-76
2022/04/22 04:26:06;;;;;;;6.18;3.63;;;;;;;;;;4962523;28;20351;-78
2022/04/22 04:28:33;;;;;;;6.43;3.50;;;;;;;;;;4959202;28;20545;-77
2022/04/22 04:30:59;;;;;;;7.63;4.00;;;;;;;;;;4980047;28;20046;-78
2022/04/22 04:33:25;;;;;;;9.15;4.38;;;;;;;;;;4978388;28;20042;-78
2022/04/22 04:35:51;;;;;;;5.72;3.58;;;;;;;;;;4967829;28;20294;-75
2022/04/22 04:38:19;;;;;;;10.85;4.03;;;;;;;;;;4966537;28;20497;-79
2022/04/22 04:40:45;;;;;;;8.43;3.83;;;;;;;;;;4976766;28;20057;-77
2022/04/22 04:43:11;;;;;;;7.57;4.25;;;;;;;;;;4962510;28;20045;-76
2022/04/22 04:45:37;;;;;;;8.75;4.35;;;;;;;;;;4964908;28;20042;-76
2022/04/22 04:48:03;;;;;;;9.23;3.35;;;;;;;;;;4964610;28;20101;-77
2022/04/22 04:50:30;;;;;;;6.72;4.25;;;;;;;;;;4979593;28;20486;-74
2022/04/22 04:52:56;;;;;;;10.30;4.13;;;;;;;;;;4964941;28;20145;-75
2022/04/22 04:55:22;;;;;;;4.53;3.40;;;;;;;;;;4963104;28;20070;-77
2022/04/22 04:57:48;;;;;;;6.55;3.90;;;;;;;;;;4962078;28;20129;-76
2022/04/22 05:00:15;;;;;;;7.13;3.70;;;;;;;;;;4962461;28;20071;-76
2022/04/22 05:02:41;;;;;;;9.48;4.47;;;;;;;;;;4962972;28;20494;-77
2022/04/22 05:05:07;;;;;;;8.38;4.45;;;;;;;;;;4963675;28;20065;-77
2022/04/22 05:07:34;;;;;;;8.35;4.68;;;;;;;;;;4960144;28;20039;-78
2022/04/22 05:10:00;;;;;;;8.75;4.32;;;;;;;;;;4960607;28;20035;-77
2022/04/22 05:12:26;;;;;;;10.60;4.90;;;;;;;;;;4960749;28;20067;-77
2022/04/22 05:14:52;;;;;;;6.18;4.28;;;;;;;;;;4964674;28;20355;-80
2022/04/22 05:17:18;;;;;;;8.15;4.32;;;;;;;;;;4979731;28;20061;-76
2022/04/22 05:19:44;;;;;;;10.30;4.10;;;;;;;;;;4960863;28;20042;-75
2022/04/22 05:22:10;;;;;;;6.05;3.30;;;;;;;;;;4961816;28;20046;-76
2022/04/22 05:24:37;;;;;;;8.23;3.05;;;;;;;;;;4967362;28;20051;-77
2022/04/22 05:27:04;;;;;;;7.68;3.88;;;;;;;;;;4967689;28;20109;-77
2022/04/22 05:34:59;;;;;;;5.70;3.58;;;;;;;;;;4979137;28;20402;-77
2022/04/22 05:37:25;;;;;;;7.95;4.53;;;;;;;;;;4964600;28;20046;-77
2022/04/22 05:39:51;;;;;;;6.22;3.75;;;;;;;;;;4964157;28;20054;-78
2022/04/22 05:42:17;;;;;;;10.43;3.97;;;;;;;;;;4964416;28;20398;-75
2022/04/22 05:44:43;;;;;;;9.30;3.70;;;;;;;;;;4962821;28;20081;-78
2022/04/22 05:47:09;;;;;;;9.70;3.75;;;;;;;;;;4966117;28;20042;-76
2022/04/22 05:49:35;;;;;;;8.30;3.30;;;;;;;;;;4966621;28;20423;-76
2022/04/22 05:52:01;;;;;;;5.65;2.95;;;;;;;;;;4964697;28;20046;-77
2022/04/22 05:54:27;;;;;;;9.90;3.30;;;;;;;;;;4963362;28;20041;-76
2022/04/22 05:56:53;;;;;;;8.60;3.72;;;;;;;;;;4963307;28;20038;-80
2022/04/22 05:59:19;;;;;;;8.95;3.60;;;;;;;;;;4964953;28;20108;-78
2022/04/22 06:01:45;;;;;;;5.38;3.72;;;;;;;;;;4963947;28;20050;-79
2022/04/22 06:04:11;;;;;;;4.35;3.03;;;;;;;;;;4965099;28;20038;-79
2022/04/22 06:06:37;;;;;;;5.50;3.17;;;;;;;;;;4963552;28;20121;-79
2022/04/22 06:11:47;;;;;;;5.90;3.05;;;;;;;;;;4980051;28;20446;-80
2022/04/22 06:14:13;;;;;;;6.78;3.47;;;;;;;;;;4962957;28;20042;-80
2022/04/22 06:16:40;;;;;;;6.55;3.03;;;;;;;;;;4965049;28;20543;-77
2022/04/22 06:19:06;;;;;;;5.60;3.13;;;;;;;;;;4963343;28;20410;-79
2022/04/22 06:21:32;;;;;;;7.95;2.90;;;;;;;;;;4963051;28;20080;-82
2022/04/22 06:23:58;;;;;;;6.82;3.83;;;;;;;;;;4963282;28;20049;-78
2022/04/22 06:26:24;;;;;;;7.35;3.40;;;;;;;;;;4960241;28;20038;-76
2022/04/22 06:28:50;;;;;;;5.57;3.17;;;;;;;;;;4965261;28;20132;-75
2022/04/22 06:31:16;;;;;;;4.05;2.55;;;;;;;;;;4950925;28;20046;-80
2022/04/22 06:33:42;;;;;;;5.13;2.90;;;;;;;;;;4962192;28;20038;-77
2022/04/22 06:36:14;;;;;;;4.53;2.88;;;;;;;;;;4961503;28;20042;-79
2022/04/22 06:38:42;;;;;;;4.18;2.95;;;;;;;;;;4952329;28;20466;-80
2022/04/22 06:46:38;;;;;;;4.75;2.72;;;;;;;;;;4975123;28;20046;-80
2022/04/22 06:49:04;;;;;;;3.92;2.30;;;;;;;;;;4963321;28;20069;-83
2022/04/22 06:51:30;;;;;;;5.65;2.65;;;;;;;;;;4961769;28;20042;-80
2022/04/22 06:53:59;;;;;;;2.67;2.42;;;;;;;;;;4978461;28;20147;-80
2022/04/22 06:56:29;;;;;;;5.05;2.70;;;;;;;;;;4961200;28;20042;-87
2022/04/22 06:58:55;;;;;;;4.70;2.60;;;;;;;;;;4976667;28;20042;-83
2022/04/22 07:01:22;;;;;;;2.60;2.40;;;;;;;;;;4955992;28;20049;-84
2022/04/22 07:03:48;;;;;;;4.03;2.38;;;;;;;;;;4960953;28;20074;-84
2022/04/22 07:06:14;;;;;;;3.55;2.47;;;;;;;;;;4958368;28;20042;-86
2022/04/22 07:08:42;;;;;;;4.13;2.20;;;;;;;;;;4944790;28;20047;-84
2022/04/22 07:11:08;;;;;;;4.00;2.25;;;;;;;;;;4960877;28;20499;-82
2022/04/22 07:13:35;;;;;;;4.00;2.45;;;;;;;;;;4961033;28;20049;-80
2022/04/22 07:16:02;;;;;;;5.60;2.70;;;;;;;;;;4956314;28;20037;-81
2022/04/22 07:18:28;;;;;;;3.97;2.20;;;;;;;;;;4959271;28;20042;-85
2022/04/22 07:20:54;;;;;;;3.40;2.20;;;;;;;;;;4960864;28;20045;-82
2022/04/22 07:23:20;;;;;;;6.53;2.47;;;;;;;;;;4958603;28;20138;-83
2022/04/22 07:25:48;;;;;;;2.92;2.17;;;;;;;;;;4958587;28;20370;-78
2022/04/22 07:28:14;;;;;;;3.58;2.40;;;;;;;;;;4958156;28;20039;-83
2022/04/22 07:30:50;;;;;;;4.30;3.00;;;;;;;;;;4957643;28;20046;-84
2022/04/22 07:33:16;;;;;;;6.25;2.20;;;;;;;;;;4957462;28;20502;-85
2022/04/22 07:35:42;;;;;;;3.80;2.67;;;;;;;;;;4959636;28;20376;-81
2022/04/22 07:38:10;;;;;;;4.03;3.13;;;;;;;;;;4957190;28;20057;-83
2022/04/22 07:40:37;;;;;;;3.90;2.20;;;;;;;;;;4957199;28;20049;-84
2022/04/22 07:48:36;;;;;;;2.17;1.83;;;;;;;;;;4973377;28;20426;-86
2022/04/22 07:51:02;;;;;;;3.95;2.33;;;;;;;;;;4973892;28;20042;-84
2022/04/22 07:53:28;;;;;;;5.38;2.17;;;;;;;;;;4957014;28;20034;-86
2022/04/22 07:55:54;;;;;;;5.07;3.05;;;;;;;;;;4959251;28;20418;-81
2022/04/22 07:58:21;;;;;;;4.18;3.13;;;;;;;;;;4961336;28;20121;-80
2022/04/22 08:00:47;;;;;;;3.28;2.15;;;;;;;;;;4975899;28;20082;-87
2022/04/22 08:03:15;;;;;;;3.58;2.30;;;;;;;;;;4959964;28;20438;-82
2022/04/22 08:05:41;;;;;;;3.78;3.20;;;;;;;;;;4975864;28;20125;-81
2022/04/22 08:08:08;;;;;;;4.60;3.33;;;;;;;;;;4976005;28;20434;-87
2022/04/22 08:10:34;;;;;;;6.32;3.50;;;;;;;;;;4976187;28;20551;-82
2022/04/22 08:13:00;;;;;;;3.35;2.80;;;;;;;;;;4959843;28;20042;-81
2022/04/22 08:15:26;;;;;;;4.40;3.53;;;;;;;;;;4975966;28;20038;-80
2022/04/22 08:17:52;;;;;;;4.00;3.33;;;;;;;;;;4959795;28;20450;-82
2022/04/22 08:20:18;;;;;;;6.00;2.22;;;;;;;;;;4959325;28;20039;-80
2022/04/22 08:22:44;;;;;;;4.68;3.20;;;;;;;;;;4975611;28;20137;-80
2022/04/22 08:25:11;;;;;;;4.35;3.60;;;;;;;;;;4975403;28;20598;-85
2022/04/22 08:27:38;;;;;;;4.60;2.95;;;;;;;;;;4959252;28;20070;-79
2022/04/22 08:30:04;;;;;;;4.22;3.47;;;;;;;;;;4975541;28;20066;-83
2022/04/22 08:32:30;;;;;;;5.35;3.30;;;;;;;;;;4975484;28;20082;-82
2022/04/22 08:34:56;;;;;;;4.57;3.20;;;;;;;;;;4959789;28;20475;-85
2022/04/22 08:37:22;;;;;;;5.63;3.13;;;;;;;;;;4975232;28;20042;-81
2022/04/22 08:39:48;;;;;;;4.32;3.58;;;;;;;;;;4959682;28;20053;-85
2022/04/22 08:42:16;;;;;;;5.35;3.45;;;;;;;;;;4959554;28;20046;-83
2022/04/22 08:44:42;;;;;;;5.43;3.25;;;;;;;;;;4959394;28;20050;-82
2022/04/22 08:50:02;;;;;;;5.57;3.30;;;;;;;;;;4975204;28;20050;-87
2022/04/22 08:52:33;;;;;;;4.35;3.45;;;;;;;;;;4975787;28;20106;-82
2022/04/22 08:55:00;;;;;;;6.00;3.35;;;;;;;;;;4973231;28;20042;-85
2022/04/22 08:57:28;;;;;;;3.15;2.85;;;;;;;;;;4956447;28;20458;-81
2022/04/22 08:59:57;;;;;;;5.50;3.17;;;;;;;;;;4956929;28;20053;-82
2022/04/22 09:02:24;;;;;;;3.83;3.42;;;;;;;;;;4956209;28;20189;-84
2022/04/22 09:04:50;;;;;;;4.90;3.60;;;;;;;;;;4958257;28;20121;-85
2022/04/22 09:07:24;;;;;;;8.45;3.28;;;;;;;;;;4960038;28;20622;-85
2022/04/22 09:09:50;;;;;;;4.45;3.20;;;;;;;;;;4976530;28;20042;-85
2022/04/22 09:12:19;;;;;;;5.22;3.42;;;;;;;;;;4960735;28;20038;-79
2022/04/22 09:14:49;;;;;;;4.55;3.35;;;;;;;;;;4960866;28;20050;-80
2022/04/22 09:17:26;;;;;;;10.40;2.67;;;;;;;;;;4960609;28;20097;-87
2022/04/22 09:19:53;;;;;;;8.38;2.08;;;;;;;;;;4960635;28;20064;-87
2022/04/22 09:22:21;;;;;;;4.15;2.75;;;;;;;;;;4961304;28;20045;-84
2022/04/22 09:24:51;;;;;;;4.40;2.60;;;;;;;;;;4976761;28;20042;-84
2022/04/22 09:27:18;;;;;;;6.38;2.50;;;;;;;;;;4976599;28;20042;-85
2022/04/22 09:29:52;;;;;;;5.50;2.70;;;;;;;;;;4960190;28;20060;-84
2022/04/22 09:32:27;;;;;;;2.65;2.00;;;;;;;;;;4976620;28;20085;-81
2022/04/22 09:34:58;;;;;;;6.70;2.22;;;;;;;;;;4959745;28;20541;-80
2022/04/22 09:42:58;;;;;;;8.38;2.53;;;;;;;;;;4976746;28;20042;-82
2022/04/22 09:45:38;;;;;;;4.55;2.35;;;;;;;;;;4976291;28;20042;-83
2022/04/22 09:48:13;;;;;;;6.07;2.58;;;;;;;;;;4976379;28;20446;-90
2022/04/22 09:50:43;;;;;;;5.88;3.17;;;;;;;;;;4959081;28;20069;-82
2022/04/22 09:53:10;;;;;;;4.65;2.75;;;;;;;;;;4959225;28;20038;-83
2022/04/22 09:55:46;;;;;;;4.63;2.42;;;;;;;;;;4958265;28;20042;-82
2022/04/22 09:58:12;;;;;;;5.65;3.10;;;;;;;;;;4958776;28;20038;-81
2022/04/22 10:00:38;;;;;;;4.82;2.50;;;;;;;;;;4974813;28;20390;-80
2022/04/22 10:03:08;;;;;;;6.40;2.92;;;;;;;;;;4974450;28;20537;-85
2022/04/22 10:05:34;;;;;;;3.58;2.47;;;;;;;;;;4958964;28;20045;-85
2022/04/22 10:08:02;;;;;;;4.53;3.13;;;;;;;;;;4958776;28;20078;-83
2022/04/22 10:10:33;;;;;;;5.57;3.17;;;;;;;;;;4978390;28;20034;-88
2022/04/22 10:13:01;;;;;;;4.45;2.65;;;;;;;;;;4962073;28;20038;-87
2022/04/22 10:15:29;;;;;;;5.50;2.58;;;;;;;;;;4961844;28;20081;-80
2022/04/22 10:17:56;;;;;;;6.47;2.40;;;;;;;;;;4962393;28;20139;-79
2022/04/22 10:20:23;;;;;;;3.97;2.90;;;;;;;;;;4979021;28;20069;-84
2022/04/22 10:22:50;;;;;;;5.55;2.95;;;;;;;;;;4979426;28;20046;-85
2022/04/22 10:25:16;;;;;;;3.50;2.70;;;;;;;;;;4962522;28;20057;-79
2022/04/22 10:27:44;;;;;;;5.60;3.10;;;;;;;;;;4962807;28;20054;-88
2022/04/22 10:30:11;;;;;;;6.80;3.03;;;;;;;;;;4962961;28;20140;-80
2022/04/22 10:32:42;;;;;;;6.50;3.40;;;;;;;;;;4962667;28;20045;-85
2022/04/22 10:35:09;;;;;;;4.15;3.17;;;;;;;;;;4962160;28;20129;-81
2022/04/22 10:37:41;;;;;;;6.03;3.28;;;;;;;;;;4961897;28;20050;-86
2022/04/22 10:40:17;;;;;;;5.85;2.70;;;;;;;;;;4962390;28;20507;-86
2022/04/22 10:42:43;;;;;;;2.92;2.13;;;;;;;;;;4961550;28;20483;-83
2022/04/22 10:47:58;;;;;;;5.07;2.92;;;;;;;;;;4977434;28;20062;-82
2022/04/22 10:50:24;;;;;;;3.30;2.95;;;;;;;;;;4977800;28;20045;-85
2022/04/22 10:53:01;;;;;;;4.18;3.15;;;;;;;;;;4961399;28;20046;-86
2022/04/22 10:55:27;;;;;;;5.38;2.80;;;;;;;;;;4961059;28;20050;-81
2022/04/22 10:58:13;;;;;;;6.43;2.90;;;;;;;;;;4961633;28;20052;-79
2022/04/22 11:00:42;;;;;;;7.15;3.30;;;;;;;;;;4961021;28;20486;-84
2022/04/22 11:03:16;;;;;;;4.13;2.80;;;;;;;;;;4961138;28;20046;-84
2022/04/22 11:05:53;;;;;;;12.18;3.45;;;;;;;;;;4960729;28;20133;-79
2022/04/22 11:08:28;;;;;;;5.38;2.55;;;;;;;;;;4977457;28;20046;-81
2022/04/22 11:10:54;;;;;;;5.05;3.58;;;;;;;;;;4961069;28;20116;-83
2022/04/22 11:13:29;;;;;;;5.30;3.38;;;;;;;;;;4960605;28;20447;-80
2022/04/22 11:15:59;;;;;;;5.38;3.20;;;;;;;;;;4976927;28;20140;-79
2022/04/22 11:18:26;;;;;;;4.53;3.10;;;;;;;;;;4960593;28;20053;-83
2022/04/22 11:20:52;;;;;;;6.43;3.05;;;;;;;;;;4960814;28;20046;-82
2022/04/22 11:23:18;;;;;;;3.30;2.35;;;;;;;;;;4977275;28;20056;-81
2022/04/22 11:25:46;;;;;;;5.38;3.08;;;;;;;;;;4961278;28;20594;-78
2022/04/22 11:28:13;;;;;;;5.75;3.67;;;;;;;;;;4960971;28;20483;-86
2022/04/22 11:30:40;;;;;;;4.03;3.00;;;;;;;;;;4960218;28;20051;-84
2022/04/22 11:33:16;;;;;;;7.40;3.22;;;;;;;;;;4961095;28;20043;-86
2022/04/22 11:35:42;;;;;;;4.55;3.35;;;;;;;;;;4960586;28;20479;-80
2022/04/22 11:38:08;;;;;;;3.95;3.08;;;;;;;;;;4976268;28;20034;-79
2022/04/22 11:40:39;;;;;;;5.60;3.45;;;;;;;;;;4960309;28;20038;-84
2022/04/22 11:43:08;;;;;;;6.32;3.63;;;;;;;;;;4960217;28;20100;-83
2022/04/22 11:45:41;;;;;;;5.30;3.45;;;;;;;;;;4960102;28;20085;-80
2022/04/22 11:48:11;;;;;;;5.47;3.10;;;;;;;;;;4960011;28;20398;-79
2022/04/22 11:50:38;;;;;;;4.68;3.72;;;;;;;;;;4960473;28;20092;-85
2022/04/22 11:53:07;;;;;;;9.43;3.65;;;;;;;;;;4960192;28;20046;-84
2022/04/22 11:55:33;;;;;;;4.88;3.40;;;;;;;;;;4960120;28;20061;-87
2022/04/22 11:58:00;;;;;;;4.57;3.75;;;;;;;;;;4959989;28;20038;-85
2022/04/22 12:05:57;;;;;;;7.05;3.53;;;;;;;;;;4975700;28;20388;-84
2022/04/22 12:08:23;;;;;;;5.63;3.95;;;;;;;;;;4959685;28;20046;-78
2022/04/22 12:10:50;;;;;;;6.43;4.07;;;;;;;;;;4975631;28;20054;-85
2022/04/22 12:13:17;;;;;;;6.47;4.05;;;;;;;;;;4959630;28;20047;-79
2022/04/22 12:15:48;;;;;;;7.43;3.92;;;;;;;;;;4959418;28;20042;-80
2022/04/22 12:18:27;;;;;;;4.80;3.85;;;;;;;;;;4959356;28;20061;-81
2022/04/22 12:20:54;;;;;;;7.18;3.17;;;;;;;;;;4959600;28;20406;-86
2022/04/22 12:23:21;;;;;;;6.80;3.35;;;;;;;;;;4959671;28;20038;-81
2022/04/22 12:25:56;;;;;;;4.93;4.20;;;;;;;;;;4959293;28;20038;-85
2022/04/22 12:28:22;;;;;;;6.07;3.80;;;;;;;;;;4959783;28;20407;-85
2022/04/22 12:30:48;;;;;;;4.35;3.63;;;;;;;;;;4959084;28;20053;-84
2022/04/22 12:33:23;;;;;;;6.10;3.70;;;;;;;;;;4959557;28;20483;-87
2022/04/22 12:35:49;;;;;;;7.30;3.60;;;;;;;;;;4959763;28;20566;-83
2022/04/22 12:38:16;;;;;;;7.60;4.50;;;;;;;;;;4975850;28;20491;-85
2022/04/22 12:40:48;;;;;;;7.95;4.68;;;;;;;;;;4959215;28;20160;-82
2022/04/22 12:43:27;;;;;;;6.05;4.03;;;;;;;;;;4975157;28;20046;-83
2022/04/22 12:54:16;;;;;;;8.07;4.88;;;;;;;;;;4975896;28;20046;-84
2022/04/22 12:56:50;;;;;;;7.70;4.50;;;;;;;;;;4959404;28;20038;-80
2022/04/22 12:59:16;;;;;;;6.03;4.43;;;;;;;;;;4960316;28;20053;-89
2022/04/22 13:01:42;;;;;;;6.80;4.15;;;;;;;;;;4960150;28;20533;-85
2022/04/22 13:04:19;;;;;;;6.78;4.50;;;;;;;;;;4960161;28;20081;-85
2022/04/22 13:06:46;;;;;;;10.07;4.47;;;;;;;;;;4960177;28;20064;-85
2022/04/22 13:09:13;;;;;;;7.15;4.57;;;;;;;;;;4960341;28;20054;-82
2022/04/22 13:11:42;;;;;;;6.70;4.55;;;;;;;;;;4960052;28;20403;-83
2022/04/22 13:14:09;;;;;;;6.63;4.45;;;;;;;;;;4976674;28;20430;-86
2022/04/22 13:16:35;;;;;;;8.60;4.43;;;;;;;;;;4960705;28;20094;-86
2022/04/22 13:19:02;;;;;;;8.45;4.80;;;;;;;;;;4960621;28;20129;-80
2022/04/22 13:21:28;;;;;;;9.02;4.57;;;;;;;;;;4960384;28;20054;-82
2022/04/22 13:23:54;;;;;;;7.47;4.85;;;;;;;;;;4959965;28;20049;-84
2022/04/22 13:26:21;;;;;;;8.13;4.55;;;;;;;;;;4960043;28;20053;-83
2022/04/22 13:28:48;;;;;;;7.53;4.97;;;;;;;;;;4959749;28;20076;-79
2022/04/22 13:31:14;;;;;;;8.93;5.13;;;;;;;;;;4959825;28;20038;-81
2022/04/22 13:33:40;;;;;;;6.18;4.47;;;;;;;;;;4975981;28;20126;-83
2022/04/22 13:36:11;;;;;;;8.07;4.57;;;;;;;;;;4960267;28;20042;-81
2022/04/22 13:38:37;;;;;;;7.22;4.63;;;;;;;;;;4959608;28;20084;-79
2022/04/22 13:41:05;;;;;;;6.53;4.90;;;;;;;;;;4960093;28;20053;-85
2022/04/22 13:43:31;;;;;;;6.40;4.72;;;;;;;;;;4960937;28;20046;-85
2022/04/22 13:54:11;;;;;;;9.13;5.15;;;;;;;;;;4979894;28;20503;-79
2022/04/22 13:56:37;;;;;;;8.07;4.68;;;;;;;;;;4980262;28;20088;-87
2022/04/22 13:59:03;;;;;;;5.85;4.43;;;;;;;;;;4964048;28;20053;-87
2022/04/22 14:01:29;;;;;;;9.13;5.07;;;;;;;;;;4963085;28;20061;-88
2022/04/22 14:03:55;;;;;;;7.50;5.15;;;;;;;;;;4963520;28;20038;-85
2022/04/22 14:06:21;;;;;;;11.95;4.82;;;;;;;;;;4963110;28;20376;-82
2022/04/22 14:08:48;;;;;;;7.75;4.82;;;;;;;;;;4979235;28;20043;-84
2022/04/22 14:11:14;;;;;;;7.32;4.45;;;;;;;;;;4963141;28;20106;-82
2022/04/22 14:13:41;;;;;;;10.93;4.47;;;;;;;;;;4963124;28;20038;-79
2022/04/22 14:16:10;;;;;;;5.25;4.45;;;;;;;;;;4979586;28;20061;-83
2022/04/22 14:18:37;;;;;;;6.45;4.53;;;;;;;;;;4979065;28;20495;-85
2022/04/22 14:21:04;;;;;;;5.82;4.60;;;;;;;;;;4963103;28;20039;-83
2022/04/22 14:23:30;;;;;;;6.15;4.35;;;;;;;;;;4962336;28;20046;-87
2022/04/22 14:25:56;;;;;;;10.70;4.93;;;;;;;;;;4977747;28;20406;-81
2022/04/22 14:28:24;;;;;;;7.32;4.50;;;;;;;;;;4961693;28;20153;-85
2022/04/22 14:30:50;;;;;;;7.82;4.63;;;;;;;;;;4961373;28;20069;-85
2022/04/22 14:33:16;;;;;;;7.40;4.97;;;;;;;;;;4960847;28;20582;-79
2022/04/22 14:35:42;;;;;;;9.63;3.85;;;;;;;;;;4975034;28;20395;-80
2022/04/22 14:38:08;;;;;;;7.35;3.92;;;;;;;;;;4958111;28;20042;-82
2022/04/22 14:40:34;;;;;;;7.25;4.50;;;;;;;;;;4958020;28;20454;-83
2022/04/22 14:43:01;;;;;;;4.90;3.80;;;;;;;;;;4957690;28;20038;-81
2022/04/22 14:45:28;;;;;;;6.40;3.78;;;;;;;;;;4974193;28;20351;-81
2022/04/22 14:47:55;;;;;;;5.40;4.15;;;;;;;;;;4957375;28;20078;-81
2022/04/22 14:50:21;;;;;;;6.80;3.95;;;;;;;;;;4973359;28;20046;-86
2022/04/22 14:52:48;;;;;;;9.45;4.03;;;;;;;;;;4957944;28;20125;-80
2022/04/22 14:55:14;;;;;;;11.15;4.38;;;;;;;;;;4973283;28;20057;-80
2022/04/22 14:57:40;;;;;;;11.27;4.35;;;;;;;;;;4974066;28;20137;-81
2022/04/22 15:00:08;;;;;;;5.22;3.88;;;;;;;;;;4973747;28;20053;-80
2022/04/22 15:02:34;;;;;;;6.10;4.00;;;;;;;;;;4957254;28;20068;-80
2022/04/22 15:05:00;;;;;;;8.23;4.03;;;;;;;;;;4957688;28;20761;-82
2022/04/22 15:07:28;;;;;;;6.07;3.88;;;;;;;;;;4957556;28;20121;-80
2022/04/22 15:09:54;;;;;;;5.10;4.55;;;;;;;;;;4957690;28;20579;-78
2022/04/22 15:12:22;;;;;;;7.07;4.00;;;;;;;;;;4957544;28;20129;-82
2022/04/22 15:14:48;;;;;;;5.07;4.10;;;;;;;;;;4957678;28;20420;-79
2022/04/22 15:17:14;;;;;;;6.72;4.07;;;;;;;;;;4957260;28;20105;-82
2022/04/22 15:25:09;;;;;;;8.48;4.18;;;;;;;;;;4973075;28;20042;-86
2022/04/22 15:27:36;;;;;;;7.00;3.25;;;;;;;;;;4972935;28;20045;-86
2022/04/22 15:30:03;;;;;;;7.75;4.13;;;;;;;;;;4956853;28;20058;-80
2022/04/22 15:32:29;;;;;;;7.55;4.25;;;;;;;;;;4957288;28;20047;-80
2022/04/22 15:34:55;;;;;;;6.45;3.85;;;;;;;;;;4972824;28;20054;-80
2022/04/22 15:37:21;;;;;;;5.45;3.35;;;;;;;;;;4957104;28;20550;-81
2022/04/22 15:39:49;;;;;;;5.03;3.40;;;;;;;;;;4960220;28;20177;-86
2022/04/22 15:42:15;;;;;;;6.60;4.15;;;;;;;;;;4956698;28;20063;-87
2022/04/22 15:44:48;;;;;;;5.72;3.08;;;;;;;;;;4956714;28;20501;-80
2022/04/22 15:47:15;;;;;;;7.30;3.30;;;;;;;;;;4956764;28;20133;-86
2022/04/22 15:49:41;;;;;;;5.03;3.78;;;;;;;;;;4956674;28;20057;-80
2022/04/22 15:52:12;;;;;;;11.73;3.78;;;;;;;;;;4941106;28;20050;-86
2022/04/22 15:54:39;;;;;;;6.00;3.50;;;;;;;;;;4956837;28;20049;-81
2022/04/22 15:57:13;;;;;;;6.45;4.07;;;;;;;;;;4972882;28;20046;-80
2022/04/22 15:59:38;;;;;;;10.65;4.90;;;;;;;;;;4972287;28;20423;-78